CheckWX is a tool to help pilots better visualize weather data.  It is not intended as a substitute for an official pre-flight weather briefing.

20:31:04 UTC

RCKH TAF
Kaohsiung International Airport
Kaohsiung City, Taiwan
TAF RCKH 221700Z 2218/2324 33005KT 7000 FEW015 BKN032 TEMPO 2220/2302 3500 BR TEMPO 2302/2308 27010KT TEMPO 2318/2324 4000 BR

Mar-22@
18:00 UTC

Mar-22 @ 18:00 UTC

Mar-24@
00:00 UTC

Mar-24 @ 00:00 UTC

TAF RCKH 221700Z 2218/2324 33005KT 7000 FEW015 BKN032
Wind
  • 330° at 5 KTS
Cloud Levels
  • Few at 1,500' AGL
  • Broken at 3,200' AGL

Mar-22@
20:00 UTC

Mar-22 @ 20:00 UTC

Mar-23@
02:00 UTC

Mar-23 @ 02:00 UTC

TEMPO 2220/2302 3500 BR

Temporary

Temporary Changes expected for less than half the time period

Conditions
Mist

Mar-23@
02:00 UTC

Mar-23 @ 02:00 UTC

Mar-23@
08:00 UTC

Mar-23 @ 08:00 UTC

TEMPO 2302/2308 27010KT

Temporary

Temporary Changes expected for less than half the time period

Wind
  • 270° at 10 KTS

Mar-23@
18:00 UTC

Mar-23 @ 18:00 UTC

Mar-24@
00:00 UTC

Mar-24 @ 00:00 UTC

TEMPO 2318/2324 4000 BR

Temporary

Temporary Changes expected for less than half the time period

Conditions
Mist